Time;durP1;ratioP1;P1;durP2;ratioP2;P2;SDS_P1;SDS_P2;PMS_P1;PMS_P2;Temp;Humidity;BMP_temperature;BMP_pressure;BME280_temperature;BME280_humidity;BME280_pressure;Samples;Min_cycle;Max_cycle;Signal;HPM_P1;HPM_P2
2021/04/10 00:00:38;;;;;;;33.47;19.00;;;;;;;4.20;52.44;100015.32;115391;1198;102940;-84
2021/04/10 00:03:14;;;;;;;30.80;17.03;;;;;;;4.18;52.04;100012.75;115455;1199;103089;-84
2021/04/10 00:05:42;;;;;;;31.70;17.03;;;;;;;4.16;52.19;100014.50;115421;1198;103210;-84
2021/04/10 00:08:09;;;;;;;32.20;18.00;;;;;;;4.16;52.41;100009.34;115416;1200;103613;-84
2021/04/10 00:10:36;;;;;;;37.40;18.57;;;;;;;4.14;52.41;100005.06;115428;1199;103088;-84
2021/04/10 00:13:04;;;;;;;34.13;17.30;;;;;;;4.14;52.45;100021.41;115378;1199;103031;-85
2021/04/10 00:15:31;;;;;;;31.57;16.80;;;;;;;4.13;52.68;100008.48;115707;1199;103152;-84
2021/04/10 00:17:59;;;;;;;29.90;16.10;;;;;;;4.12;52.30;99997.30;115384;1199;103229;-84
2021/04/10 00:20:26;;;;;;;32.67;17.13;;;;;;;4.13;52.37;99993.00;115278;1199;104311;-85
2021/04/10 00:22:53;;;;;;;32.85;16.70;;;;;;;4.12;52.54;100005.05;115411;1199;102992;-85
2021/04/10 00:25:21;;;;;;;33.37;18.37;;;;;;;4.10;52.70;99993.89;115415;1199;103105;-84
2021/04/10 00:27:55;;;;;;;32.87;17.53;;;;;;;4.09;52.87;100005.09;115383;1199;103003;-84
2021/04/10 00:30:23;;;;;;;35.23;17.10;;;;;;;4.09;53.16;100005.09;115409;1198;101629;-85
2021/04/10 00:32:51;;;;;;;34.60;17.50;;;;;;;4.09;52.83;99997.34;115344;1197;103105;-85
2021/04/10 00:35:18;;;;;;;33.27;17.20;;;;;;;4.07;52.92;99996.51;115655;1199;101025;-85
2021/04/10 00:37:46;;;;;;;29.37;16.07;;;;;;;4.06;52.93;99994.80;115600;1199;103338;-85
2021/04/10 00:40:13;;;;;;;34.45;16.50;;;;;;;4.05;52.91;99998.25;115365;1198;103299;-85
2021/04/10 00:42:41;;;;;;;32.30;15.57;;;;;;;4.04;52.94;99990.53;115437;1198;103536;-85
2021/04/10 00:45:10;;;;;;;28.70;15.93;;;;;;;4.02;53.00;99990.55;115342;1199;103195;-85
2021/04/10 00:47:37;;;;;;;30.30;16.03;;;;;;;4.02;53.30;99990.55;115464;1199;103034;-86
2021/04/10 00:50:06;;;;;;;28.83;15.03;;;;;;;4.00;52.87;99992.28;115407;1199;102976;-85
2021/04/10 00:52:34;;;;;;;29.80;16.17;;;;;;;3.98;53.21;99999.19;115417;1199;103134;-85
2021/04/10 00:55:04;;;;;;;32.07;15.87;;;;;;;3.96;53.24;99990.61;115710;1199;103124;-85
2021/04/10 00:57:32;;;;;;;30.93;16.27;;;;;;;3.96;53.46;99995.77;115632;1198;103159;-85
2021/04/10 01:00:00;;;;;;;31.73;16.37;;;;;;;3.95;53.40;99996.64;115419;1198;102974;-85
2021/04/10 01:02:27;;;;;;;32.23;16.73;;;;;;;3.96;53.28;99992.34;115365;1199;102880;-85
2021/04/10 01:04:56;;;;;;;29.77;15.50;;;;;;;3.94;53.36;99987.16;115417;1199;103449;-84
2021/04/10 01:07:23;;;;;;;27.43;15.03;;;;;;;3.92;53.51;99987.18;115380;1198;102952;-85
2021/04/10 01:09:54;;;;;;;27.45;15.05;;;;;;;3.92;53.36;99983.75;115434;1199;101450;-85
2021/04/10 01:12:57;;;;;;;30.50;15.45;;;;;;;3.91;53.36;99979.45;115391;1199;101292;-84
2021/04/10 01:15:50;;;;;;;28.40;15.30;;;;;;;3.91;53.53;99985.47;115148;1202;103111;-85
2021/04/10 01:18:58;;;;;;;29.30;16.00;;;;;;;3.92;53.57;99986.33;115026;1205;102990;-85
2021/04/10 01:21:35;;;;;;;29.05;15.70;;;;;;;3.91;53.30;99989.78;115012;1205;103436;-85
2021/04/10 01:24:17;;;;;;;;;;;;;;;3.90;53.73;99988.07;114978;1210;104734;-85
2021/04/10 01:27:08;;;;;;;25.75;14.50;;;;;;;3.88;53.59;99982.07;115001;1205;103040;-85
2021/04/10 01:29:45;;;;;;;31.65;15.70;;;;;;;3.87;53.50;99981.22;114982;1206;104305;-85
2021/04/10 01:32:13;;;;;;;27.60;15.27;;;;;;;3.87;53.48;99981.22;114999;1205;103053;-85
2021/04/10 01:34:49;;;;;;;27.73;15.23;;;;;;;3.87;53.70;99980.36;114937;1205;103084;-85
2021/04/10 01:37:23;;;;;;;27.10;14.60;;;;;;;3.85;53.78;99980.38;114944;1206;101403;-85
2021/04/10 01:39:52;;;;;;;29.90;15.75;;;;;;;3.85;53.61;99982.11;114930;1206;102973;-85
2021/04/10 01:42:22;;;;;;;30.60;16.20;;;;;;;3.83;53.69;99974.38;114942;1206;103114;-85
2021/04/10 01:44:52;;;;;;;31.70;16.60;;;;;;;3.83;53.65;99979.55;114981;1206;103190;-85
2021/04/10 01:47:20;;;;;;;30.27;15.73;;;;;;;3.82;53.67;99976.98;114958;1207;102327;-85
2021/04/10 01:49:50;;;;;;;27.57;15.13;;;;;;;3.82;53.73;99982.14;114859;1206;102842;-85
2021/04/10 01:52:20;;;;;;;27.63;14.93;;;;;;;3.82;53.99;99987.30;114997;1203;103069;-85
2021/04/10 01:54:49;;;;;;;29.73;15.93;;;;;;;3.82;53.89;99982.14;115116;1199;102918;-85
2021/04/10 01:57:20;;;;;;;29.77;15.97;;;;;;;3.82;53.83;99976.98;115334;1198;103094;-85
2021/04/10 01:59:56;;;;;;;31.67;15.57;;;;;;;3.82;54.00;99971.82;115309;1200;103137;-85
2021/04/10 02:02:42;;;;;;;29.47;16.23;;;;;;;3.82;54.07;99976.98;115311;1199;103102;-85
2021/04/10 02:05:16;;;;;;;25.57;14.90;;;;;;;3.81;53.95;99976.13;115347;1199;103049;-85
2021/04/10 02:07:47;;;;;;;28.83;15.03;;;;;;;3.81;53.96;99970.11;115366;1198;103085;-85
2021/04/10 02:10:18;;;;;;;29.27;16.17;;;;;;;3.79;53.97;99971.85;115423;1199;103043;-85
2021/04/10 02:13:04;;;;;;;29.40;15.77;;;;;;;3.78;54.41;99965.84;115582;1199;103035;-85
2021/04/10 02:15:41;;;;;;;29.88;15.15;;;;;;;3.77;54.05;99963.24;115593;1199;102858;-85
2021/04/10 02:18:11;;;;;;;27.43;15.13;;;;;;;3.77;54.26;99973.56;115373;1199;103015;-85
2021/04/10 02:20:38;;;;;;;30.20;14.67;;;;;;;3.77;54.15;99973.56;115426;1200;102861;-85
2021/04/10 02:23:07;;;;;;;27.30;14.40;;;;;;;3.76;54.11;99977.87;115372;1197;103035;-85
2021/04/10 02:25:39;;;;;;;28.97;15.03;;;;;;;3.76;54.27;99977.02;115386;1199;103027;-85
2021/04/10 02:28:08;;;;;;;27.43;14.10;;;;;;;3.75;54.29;99977.88;115349;1199;103149;-85
2021/04/10 02:30:35;;;;;;;27.67;14.50;;;;;;;3.75;54.20;99975.30;115614;1197;103182;-85
2021/04/10 02:33:09;;;;;;;29.90;14.97;;;;;;;3.75;54.12;99977.88;115415;1198;103005;-85
2021/04/10 02:35:49;;;;;;;32.60;15.40;;;;;;;3.74;54.09;99978.75;115395;1199;103187;-85
2021/04/10 02:38:20;;;;;;;26.37;14.57;;;;;;;3.73;54.28;99966.73;115465;1197;103568;-85
2021/04/10 02:40:58;;;;;;;26.50;14.70;;;;;;;3.71;54.22;99977.06;115389;1198;102909;-85
2021/04/10 02:43:28;;;;;;;27.37;15.33;;;;;;;3.70;54.50;99982.23;115409;1199;103067;-85
2021/04/10 02:46:01;;;;;;;26.70;14.63;;;;;;;3.68;54.61;99978.81;115397;1198;103171;-85
2021/04/10 02:48:46;;;;;;;27.67;15.03;;;;;;;3.66;54.45;99980.55;115460;1198;101425;-85
2021/04/10 02:51:14;;;;;;;25.90;14.80;;;;;;;3.65;54.46;99977.13;115576;1199;103162;-85
2021/04/10 02:53:45;;;;;;;31.07;16.03;;;;;;;3.64;54.28;99970.26;115436;1199;103021;-85
2021/04/10 02:56:15;;;;;;;26.00;15.10;;;;;;;3.62;54.57;99967.70;115362;1199;103104;-85
2021/04/10 02:58:48;;;;;;;25.37;14.13;;;;;;;3.61;54.47;99976.30;115440;1197;103069;-85
2021/04/10 03:01:17;;;;;;;27.07;15.20;;;;;;;3.60;54.80;99966.86;115440;1197;103101;-85
2021/04/10 03:03:46;;;;;;;28.40;15.37;;;;;;;3.59;54.32;99961.68;115422;1199;103098;-85
2021/04/10 03:06:15;;;;;;;26.73;14.37;;;;;;;3.59;54.56;99959.10;115410;1199;101906;-85
2021/04/10 03:08:46;;;;;;;24.75;14.50;;;;;;;3.58;54.40;99963.41;115367;1199;103018;-85
2021/04/10 03:11:16;;;;;;;26.10;14.60;;;;;;;3.58;54.35;99962.55;115640;1198;103088;-84
2021/04/10 03:13:44;;;;;;;26.95;14.25;;;;;;;3.56;54.34;99961.71;115507;1199;103019;-85
2021/04/10 03:16:17;;;;;;;24.90;14.17;;;;;;;3.54;54.52;99964.30;115409;1198;103120;-84
2021/04/10 03:18:49;;;;;;;27.73;15.67;;;;;;;3.54;54.70;99956.56;115392;1199;103025;-84
2021/04/10 03:21:17;;;;;;;24.23;14.37;;;;;;;3.54;54.71;99961.73;115683;1199;103031;-84
2021/04/10 03:23:52;;;;;;;27.13;15.10;;;;;;;3.53;54.53;99954.86;115413;1199;103017;-84
2021/04/10 03:26:20;;;;;;;25.53;14.47;;;;;;;3.52;54.71;99962.61;115454;1199;101238;-85
2021/04/10 03:28:50;;;;;;;25.20;14.35;;;;;;;3.52;54.87;99962.61;115399;1198;103079;-84
2021/04/10 03:31:19;;;;;;;24.50;14.60;;;;;;;3.51;54.90;99961.75;115419;1199;103066;-85
2021/04/10 03:33:46;;;;;;;24.43;14.33;;;;;;;3.51;54.57;99963.48;115372;1199;103550;-84
2021/04/10 03:36:14;;;;;;;27.97;14.33;;;;;;;3.51;54.72;99961.75;115559;1197;102992;-84
2021/04/10 03:38:43;;;;;;;24.00;13.70;;;;;;;3.51;54.92;99956.59;115486;1198;103056;-85
2021/04/10 03:41:11;;;;;;;21.97;13.83;;;;;;;3.50;54.75;99960.05;115479;1199;103031;-84
2021/04/10 03:43:39;;;;;;;24.97;14.77;;;;;;;3.49;54.67;99953.18;115388;1199;103021;-84
2021/04/10 03:46:06;;;;;;;23.03;14.00;;;;;;;3.49;54.73;99950.61;115375;1200;103838;-84
2021/04/10 03:48:34;;;;;;;24.83;14.13;;;;;;;3.48;54.90;99956.63;115461;1199;103001;-84
2021/04/10 03:51:07;;;;;;;27.30;14.57;;;;;;;3.48;54.95;99946.31;115371;1198;103614;-85
2021/04/10 03:53:45;;;;;;;25.97;14.20;;;;;;;3.49;54.69;99958.34;115406;1198;103114;-84
2021/04/10 03:56:13;;;;;;;25.70;14.53;;;;;;;3.49;54.90;99958.34;115382;1198;103060;-84
2021/04/10 03:58:42;;;;;;;26.03;15.73;;;;;;;3.50;54.73;99954.89;115645;1197;102996;-85
2021/04/10 04:01:11;;;;;;;27.07;14.80;;;;;;;3.50;55.03;99961.77;115397;1199;102900;-84
2021/04/10 04:03:38;;;;;;;26.40;14.53;;;;;;;3.49;55.04;99968.66;115411;1200;103031;-84
2021/04/10 04:06:05;;;;;;;24.77;14.47;;;;;;;3.49;54.88;99968.66;115449;1200;103506;-84
2021/04/10 04:08:33;;;;;;;22.48;13.98;;;;;;;3.50;55.03;99970.36;115383;1199;103166;-86
2021/04/10 04:11:00;;;;;;;26.83;14.43;;;;;;;3.51;55.16;99969.49;115459;1200;103175;-86
2021/04/10 04:13:27;;;;;;;27.37;14.43;;;;;;;3.51;55.26;99981.53;115410;1199;102140;-83
2021/04/10 04:15:54;;;;;;;30.43;14.80;;;;;;;3.51;55.01;99984.96;115453;1200;103236;-84
2021/04/10 04:18:21;;;;;;;24.90;14.70;;;;;;;3.53;55.08;99988.38;115371;1199;103153;-85
2021/04/10 04:20:49;;;;;;;30.83;15.47;;;;;;;3.54;55.29;99990.09;115567;1199;103028;-86
2021/04/10 04:23:16;;;;;;;27.43;14.83;;;;;;;3.59;55.13;99985.78;115426;1197;103166;-84
2021/04/10 04:25:43;;;;;;;23.33;14.13;;;;;;;3.74;55.03;99986.48;115495;1199;101410;-86
2021/04/10 04:28:11;;;;;;;27.53;14.93;;;;;;;3.88;54.85;99982.07;115332;1199;103077;-85
2021/04/10 04:30:38;;;;;;;28.25;14.80;;;;;;;3.96;54.50;99985.45;115404;1198;103022;-85
2021/04/10 04:33:06;;;;;;;27.00;15.13;;;;;;;4.00;54.58;99981.11;115360;1198;103041;-85
2021/04/10 04:35:33;;;;;;;24.90;14.25;;;;;;;4.10;54.39;99980.13;115385;1199;103034;-86
2021/04/10 04:38:00;;;;;;;25.93;15.03;;;;;;;4.31;54.15;99981.63;115355;1199;103471;-85
2021/04/10 04:40:27;;;;;;;26.55;14.03;;;;;;;4.80;53.86;99977.59;115484;1199;103107;-85
2021/04/10 04:42:54;;;;;;;26.53;14.70;;;;;;;5.55;52.82;99980.82;115364;1199;102989;-86
2021/04/10 04:45:21;;;;;;;27.37;15.30;;;;;;;6.40;52.08;99981.94;115392;1199;103098;-85
2021/04/10 04:47:48;;;;;;;26.10;14.73;;;;;;;7.28;50.63;99977.47;115459;1199;103088;-86
2021/04/10 04:50:15;;;;;;;24.70;13.97;;;;;;;8.24;48.93;99978.55;115456;1198;103293;-84
2021/04/10 04:52:43;;;;;;;25.27;13.07;;;;;;;9.13;46.84;99976.89;115375;1199;103146;-84
2021/04/10 04:55:10;;;;;;;24.77;14.43;;;;;;;9.94;46.09;99977.75;115413;1199;103547;-84
2021/04/10 04:57:38;;;;;;;22.87;14.17;;;;;;;10.83;44.62;99981.55;115455;1199;103117;-84
2021/04/10 05:00:06;;;;;;;20.47;13.20;;;;;;;11.62;43.57;99976.72;115419;1198;103127;-84
2021/04/10 05:02:33;;;;;;;23.05;13.95;;;;;;;12.23;42.16;99982.05;115426;1199;103043;-84
2021/04/10 05:05:01;;;;;;;23.83;13.90;;;;;;;13.00;41.28;99968.08;115515;1200;103006;-84
2021/04/10 05:07:28;;;;;;;25.03;14.43;;;;;;;13.64;39.07;99972.03;115410;1199;103040;-85
2021/04/10 05:09:55;;;;;;;22.80;13.47;;;;;;;14.23;38.75;99968.20;115446;1198;103057;-85
2021/04/10 05:12:23;;;;;;;26.43;14.30;;;;;;;14.70;37.92;99962.24;115588;1199;101149;-85
2021/04/10 05:14:50;;;;;;;21.70;13.40;;;;;;;15.01;36.56;99964.91;115572;1199;103098;-85
2021/04/10 05:17:17;;;;;;;20.78;12.78;;;;;;;15.26;36.12;99966.17;115291;1198;103091;-85
2021/04/10 05:19:44;;;;;;;22.50;14.13;;;;;;;15.28;35.42;99961.70;115386;1198;103439;-85
2021/04/10 05:22:11;;;;;;;23.25;13.85;;;;;;;14.72;34.97;99968.25;115418;1197;103199;-85
2021/04/10 05:24:39;;;;;;;20.50;12.80;;;;;;;13.99;34.91;99969.43;115477;1199;103073;-84
2021/04/10 05:27:06;;;;;;;20.35;13.10;;;;;;;13.07;36.01;99968.63;115420;1199;102957;-84
2021/04/10 05:29:33;;;;;;;23.33;14.43;;;;;;;12.37;36.32;99971.81;115396;1199;103015;-84
2021/04/10 05:32:01;;;;;;;23.53;14.50;;;;;;;11.85;37.04;99979.30;115400;1198;102998;-84
2021/04/10 05:34:28;;;;;;;21.77;14.20;;;;;;;11.74;37.47;99986.69;115366;1198;103037;-84
2021/04/10 05:36:56;;;;;;;28.00;13.80;;;;;;;11.55;37.68;99985.73;115349;1198;102986;-84
2021/04/10 05:39:23;;;;;;;24.10;13.37;;;;;;;11.39;37.95;99991.56;115387;1199;103158;-85
2021/04/10 05:41:52;;;;;;;20.43;13.57;;;;;;;11.32;38.21;99995.34;115409;1199;103094;-84
2021/04/10 05:44:19;;;;;;;22.63;13.87;;;;;;;11.01;38.01;99992.20;115380;1200;103008;-84
2021/04/10 05:46:46;;;;;;;23.30;13.93;;;;;;;10.75;38.35;99998.37;115448;1199;103143;-84
2021/04/10 05:49:13;;;;;;;25.73;14.17;;;;;;;10.63;39.13;99993.63;115559;1197;103200;-84
2021/04/10 05:51:41;;;;;;;27.70;14.23;;;;;;;10.58;39.02;100007.66;115578;1198;103117;-84
2021/04/10 05:54:08;;;;;;;24.00;13.73;;;;;;;10.53;39.12;100013.95;115452;1198;103018;-85
2021/04/10 05:56:36;;;;;;;22.27;13.70;;;;;;;10.72;39.54;100009.77;115430;1198;103028;-84
2021/04/10 05:59:04;;;;;;;24.53;14.63;;;;;;;11.04;39.10;100018.17;115408;1199;103076;-84
2021/04/10 06:01:31;;;;;;;25.07;13.97;;;;;;;11.44;38.85;100020.09;115427;1199;102995;-84
2021/04/10 06:03:58;;;;;;;24.67;14.53;;;;;;;12.19;38.21;100030.14;115421;1199;103044;-84
2021/04/10 06:06:25;;;;;;;25.53;14.60;;;;;;;12.88;37.08;100022.75;115576;1199;103517;-85
2021/04/10 06:08:53;;;;;;;26.35;15.25;;;;;;;13.94;37.03;100018.64;115338;1199;102970;-85
2021/04/10 06:11:20;;;;;;;24.10;14.60;;;;;;;15.03;35.81;100020.83;115321;1199;101889;-85
2021/04/10 06:13:47;;;;;;;21.80;14.13;;;;;;;15.92;35.11;100023.78;115299;1199;102989;-85
2021/04/10 06:16:14;;;;;;;21.50;14.30;;;;;;;17.02;33.77;100017.20;115613;1200;103098;-84
2021/04/10 06:18:42;;;;;;;23.43;14.23;;;;;;;18.34;32.09;100026.20;115465;1200;103063;-84
2021/04/10 06:21:10;;;;;;;21.13;13.97;;;;;;;19.48;31.17;100015.51;115403;1199;103038;-85
2021/04/10 06:23:38;;;;;;;23.87;14.70;;;;;;;20.53;30.31;100013.92;115413;1199;103037;-85
2021/04/10 06:26:05;;;;;;;23.73;13.63;;;;;;;21.41;29.22;100013.08;115359;1198;103033;-85
2021/04/10 06:28:32;;;;;;;22.87;14.07;;;;;;;22.15;28.05;100015.86;115349;1199;102995;-85
2021/04/10 06:31:01;;;;;;;19.53;12.70;;;;;;;22.96;27.97;100010.73;115387;1199;103133;-85
2021/04/10 06:33:29;;;;;;;20.97;13.37;;;;;;;23.81;26.81;100011.94;115435;1198;103120;-85
2021/04/10 06:35:56;;;;;;;17.55;12.20;;;;;;;24.51;24.78;99999.27;115323;1199;103040;-85
2021/04/10 06:38:23;;;;;;;18.20;12.50;;;;;;;24.83;24.41;100003.39;115396;1199;103037;-85
2021/04/10 06:40:50;;;;;;;19.60;12.73;;;;;;;24.98;24.14;99996.59;115376;1199;102986;-85
2021/04/10 06:43:21;;;;;;;19.30;13.18;;;;;;;25.34;23.42;100002.05;115365;1199;103038;-85
2021/04/10 06:45:50;;;;;;;20.07;13.33;;;;;;;25.43;22.82;99995.79;115336;1199;103051;-86
2021/04/10 06:48:17;;;;;;;19.83;13.73;;;;;;;25.83;22.80;100001.56;115314;1200;103028;-85
2021/04/10 06:50:45;;;;;;;15.33;11.83;;;;;;;26.45;22.88;99999.76;115384;1198;103123;-85
2021/04/10 06:53:16;;;;;;;18.17;12.70;;;;;;;26.92;21.42;99995.82;115440;1199;102977;-85
2021/04/10 06:55:54;;;;;;;20.37;12.60;;;;;;;27.24;21.04;99992.47;115389;1199;103073;-86
2021/04/10 06:58:29;;;;;;;19.27;13.00;;;;;;;27.04;20.26;99998.09;115659;1200;102970;-86
2021/04/10 07:00:57;;;;;;;20.87;14.00;;;;;;;26.64;19.91;99993.35;115545;1199;103005;-85
2021/04/10 07:03:25;;;;;;;18.10;12.83;;;;;;;26.50;20.71;99989.42;115414;1200;103168;-85
2021/04/10 07:05:53;;;;;;;17.13;12.50;;;;;;;26.47;20.62;99986.23;115420;1199;103500;-85
2021/04/10 07:08:24;;;;;;;20.10;14.43;;;;;;;26.56;19.94;99990.61;115738;1200;103005;-85
2021/04/10 07:10:52;;;;;;;21.13;14.13;;;;;;;26.59;19.87;99986.81;115634;1199;101949;-85
2021/04/10 07:13:19;;;;;;;19.03;13.37;;;;;;;26.13;20.43;99991.47;115383;1199;103153;-85
2021/04/10 07:15:46;;;;;;;18.27;13.30;;;;;;;25.69;20.63;99993.27;115413;1198;103053;-85
2021/04/10 07:18:14;;;;;;;19.93;14.00;;;;;;;25.13;20.51;99989.77;115417;1199;103053;-85
2021/04/10 07:20:41;;;;;;;18.50;13.37;;;;;;;24.46;20.86;99998.88;115369;1198;102979;-85
2021/04/10 07:23:12;;;;;;;20.17;13.80;;;;;;;23.82;21.51;99994.13;115428;1199;103123;-85
2021/04/10 07:25:45;;;;;;;19.47;13.10;;;;;;;23.32;21.95;99999.50;115416;1199;103012;-84
2021/04/10 07:28:30;;;;;;;19.10;12.80;;;;;;;22.65;22.26;100004.56;115542;1199;103124;-85
2021/04/10 07:31:09;;;;;;;17.40;13.23;;;;;;;21.86;22.57;100002.30;115429;1199;103105;-85
2021/04/10 07:33:45;;;;;;;19.03;13.37;;;;;;;21.56;23.48;99999.54;115381;1199;103104;-84
2021/04/10 07:36:16;;;;;;;19.40;14.37;;;;;;;21.12;23.32;100001.27;115601;1199;101903;-84
2021/04/10 07:38:44;;;;;;;20.17;13.60;;;;;;;20.56;23.97;100013.67;115355;1198;103107;-85
2021/04/10 07:41:12;;;;;;;20.00;13.97;;;;;;;20.22;24.22;100014.41;115686;1200;103041;-84
2021/04/10 07:43:40;;;;;;;22.20;14.13;;;;;;;20.48;24.11;100012.47;115410;1200;102973;-84
2021/04/10 07:46:21;;;;;;;25.73;15.30;;;;;;;20.86;23.86;100013.95;115406;1199;103584;-84
2021/04/10 07:49:08;;;;;;;19.90;14.03;;;;;;;21.00;24.20;100018.98;115566;1199;103092;-84
2021/04/10 07:51:53;;;;;;;20.17;14.03;;;;;;;21.65;23.59;100006.73;115403;1199;103097;-84
2021/04/10 07:54:32;;;;;;;22.47;14.70;;;;;;;22.01;23.38;100006.34;115422;1199;103046;-84
2021/04/10 07:57:04;;;;;;;19.87;14.20;;;;;;;21.77;23.53;100002.24;115425;1200;103351;-84
2021/04/10 07:59:51;;;;;;;21.33;13.47;;;;;;;21.21;23.28;100012.97;115452;1199;101998;-84
2021/04/10 08:02:19;;;;;;;18.90;13.63;;;;;;;21.69;23.85;100010.81;115426;1199;102380;-84
2021/04/10 08:05:00;;;;;;;20.73;13.67;;;;;;;22.02;23.29;100009.84;115655;1199;103101;-84
2021/04/10 08:07:31;;;;;;;17.73;12.97;;;;;;;22.17;22.87;100011.25;115377;1199;103175;-85
2021/04/10 08:10:07;;;;;;;22.37;14.73;;;;;;;22.29;22.84;100017.36;115430;1199;102890;-85
2021/04/10 08:12:37;;;;;;;20.70;14.70;;;;;;;22.25;22.57;100008.78;115427;1198;103076;-85
2021/04/10 08:15:07;;;;;;;22.43;14.93;;;;;;;22.56;22.06;100022.13;115433;1198;103108;-84
2021/04/10 08:17:42;;;;;;;21.07;14.30;;;;;;;22.82;22.40;100015.45;115423;1199;102983;-84
2021/04/10 08:20:22;;;;;;;22.20;15.23;;;;;;;23.05;22.21;100031.22;115666;1199;102982;-85
2021/04/10 08:22:51;;;;;;;19.67;13.80;;;;;;;23.47;22.00;100019.42;115638;1199;102992;-85
2021/04/10 08:25:30;;;;;;;18.57;13.27;;;;;;;24.17;22.57;100028.19;115414;1198;103008;-85
2021/04/10 08:27:59;;;;;;;17.30;12.50;;;;;;;25.28;21.87;100025.66;115637;1199;103105;-86
2021/04/10 08:30:26;;;;;;;19.47;13.77;;;;;;;25.58;21.33;100016.48;115462;1199;103882;-85
2021/04/10 08:32:54;;;;;;;18.40;14.00;;;;;;;25.99;20.65;100018.73;115334;1198;101439;-85
2021/04/10 08:35:23;;;;;;;19.57;14.23;;;;;;;26.23;19.62;100021.63;115336;1200;102989;-85
2021/04/10 08:38:00;;;;;;;19.75;13.85;;;;;;;26.24;20.03;100023.31;115310;1199;103009;-85
2021/04/10 08:40:29;;;;;;;20.90;14.17;;;;;;;26.26;19.42;100010.63;115340;1200;103063;-85
2021/04/10 08:42:59;;;;;;;21.13;13.13;;;;;;;26.07;18.96;100010.80;115331;1198;103044;-85
2021/04/10 08:45:35;;;;;;;17.03;12.20;;;;;;;25.74;19.02;100017.68;115314;1198;103134;-85
2021/04/10 08:48:05;;;;;;;18.17;12.90;;;;;;;24.85;20.03;100004.91;115409;1199;103021;-85
2021/04/10 08:50:38;;;;;;;19.13;14.07;;;;;;;24.37;19.45;100015.71;115644;1200;102976;-85
2021/04/10 08:53:14;;;;;;;19.37;14.23;;;;;;;24.25;19.90;100019.51;115457;1200;103028;-85
2021/04/10 08:55:43;;;;;;;20.17;12.90;;;;;;;23.86;20.35;100013.33;115478;1199;103073;-85
2021/04/10 08:58:28;;;;;;;17.07;12.33;;;;;;;23.46;21.08;100012.42;115668;1199;103169;-84
2021/04/10 09:01:00;;;;;;;20.90;14.43;;;;;;;23.13;20.77;100034.03;115403;1199;102992;-85
2021/04/10 09:03:46;;;;;;;19.53;13.83;;;;;;;22.80;21.57;100029.80;115405;1198;103012;-84
2021/04/10 09:06:22;;;;;;;23.53;14.97;;;;;;;22.49;20.82;100037.77;115460;1200;102971;-85
2021/04/10 09:08:50;;;;;;;22.37;14.40;;;;;;;21.92;21.96;100032.84;115504;1199;104332;-85
2021/04/10 09:11:22;;;;;;;20.90;14.47;;;;;;;21.37;21.92;100032.88;115404;1198;102816;-85
2021/04/10 09:13:53;;;;;;;23.25;15.10;;;;;;;20.93;22.37;100033.70;115518;1199;103070;-84
2021/04/10 09:16:25;;;;;;;19.83;14.30;;;;;;;20.56;22.97;100032.22;115390;1199;103056;-84
2021/04/10 09:19:01;;;;;;;27.00;14.87;;;;;;;20.32;23.29;100032.27;115427;1199;103155;-85
2021/04/10 09:21:41;;;;;;;23.83;15.23;;;;;;;19.95;23.64;100034.19;115434;1200;103069;-84
2021/04/10 09:24:38;;;;;;;20.20;14.00;;;;;;;19.55;23.82;100042.38;115592;1199;103076;-84
2021/04/10 09:27:25;;;;;;;21.57;13.73;;;;;;;19.16;24.13;100038.13;115538;1199;103683;-85
2021/04/10 09:30:01;;;;;;;20.77;13.67;;;;;;;18.87;24.86;100041.03;115396;1199;103130;-85
2021/04/10 09:32:44;;;;;;;20.03;13.13;;;;;;;19.02;24.77;100039.09;115408;1199;103044;-84
2021/04/10 09:35:18;;;;;;;20.57;12.60;;;;;;;19.31;24.97;100042.33;115409;1200;103546;-84
2021/04/10 09:37:52;;;;;;;19.35;13.35;;;;;;;19.34;23.91;100031.52;115401;1197;102852;-84
2021/04/10 09:40:22;;;;;;;17.05;12.90;;;;;;;19.30;24.87;100030.91;115565;1199;103538;-84
2021/04/10 09:42:53;;;;;;;18.73;13.20;;;;;;;19.55;24.60;100037.09;115396;1200;103108;-85
2021/04/10 09:45:23;;;;;;;21.67;14.20;;;;;;;19.52;24.53;100021.41;115666;1198;103018;-84
2021/04/10 09:47:57;;;;;;;19.63;13.33;;;;;;;19.60;24.85;100029.69;115438;1199;102979;-84
2021/04/10 09:50:31;;;;;;;21.77;13.87;;;;;;;19.65;24.49;100037.28;115440;1199;103028;-84
2021/04/10 09:53:03;;;;;;;21.27;14.03;;;;;;;19.58;24.41;100040.38;115568;1198;103194;-84
2021/04/10 09:55:35;;;;;;;21.85;14.35;;;;;;;19.73;24.40;100042.84;115545;1199;103057;-85
2021/04/10 09:58:08;;;;;;;19.50;13.47;;;;;;;20.12;24.63;100033.78;115391;1199;102069;-84
2021/04/10 10:00:43;;;;;;;19.53;12.97;;;;;;;20.46;23.85;100045.31;115477;1198;103132;-84
2021/04/10 10:03:13;;;;;;;20.50;13.67;;;;;;;20.72;23.98;100046.82;115368;1199;103088;-84
2021/04/10 10:05:54;;;;;;;19.67;13.87;;;;;;;20.84;23.10;100041.55;115394;1199;103181;-83
2021/04/10 10:08:33;;;;;;;20.93;14.17;;;;;;;20.42;22.99;100050.01;115706;1199;101219;-83
2021/04/10 10:11:07;;;;;;;19.07;13.53;;;;;;;20.09;23.30;100047.22;115500;1199;103096;-84
2021/04/10 10:13:36;;;;;;;20.70;14.50;;;;;;;19.75;23.72;100038.28;115509;1200;102980;-84
2021/04/10 10:16:04;;;;;;;19.53;13.63;;;;;;;19.28;23.90;100046.04;115445;1199;103108;-83
2021/04/10 10:18:37;;;;;;;20.83;13.30;;;;;;;19.04;24.63;100036.38;115393;1197;103024;-86
2021/04/10 10:21:16;;;;;;;24.77;14.70;;;;;;;19.22;24.07;100040.36;115399;1197;103067;-83
2021/04/10 10:23:53;;;;;;;19.87;14.47;;;;;;;19.54;23.94;100036.25;115436;1198;103105;-84
2021/04/10 10:26:25;;;;;;;20.20;13.53;;;;;;;19.87;23.70;100042.68;115610;1199;101973;-84
2021/04/10 10:29:01;;;;;;;20.60;14.40;;;;;;;20.10;23.15;100054.20;115678;1198;103021;-84
2021/04/10 10:31:31;;;;;;;19.87;13.57;;;;;;;20.27;23.26;100044.99;115561;1199;102986;-84
2021/04/10 10:34:26;;;;;;;19.67;14.27;;;;;;;20.27;23.31;100056.43;115470;1199;103034;-84
2021/04/10 10:36:54;;;;;;;18.73;13.70;;;;;;;20.39;23.95;100050.22;115521;1198;101431;-84
2021/04/10 10:39:33;;;;;;;21.23;14.30;;;;;;;20.59;23.72;100039.93;115441;1199;103038;-84
2021/04/10 10:42:05;;;;;;;21.23;14.57;;;;;;;20.73;22.61;100037.06;115510;1199;102829;-84
2021/04/10 10:44:37;;;;;;;22.55;15.53;;;;;;;20.72;22.99;100024.78;115508;1199;103185;-84
2021/04/10 10:47:07;;;;;;;22.45;14.90;;;;;;;20.48;22.92;100028.37;115383;1199;103544;-84
2021/04/10 10:49:36;;;;;;;21.10;14.97;;;;;;;20.16;22.84;100033.42;115435;1200;103015;-85
2021/04/10 10:52:04;;;;;;;20.80;15.80;;;;;;;20.01;23.00;100033.72;115425;1199;101995;-84
2021/04/10 10:54:32;;;;;;;22.53;15.03;;;;;;;19.73;23.81;100040.20;115373;1199;102902;-86
2021/04/10 10:57:06;;;;;;;23.47;15.27;;;;;;;19.54;23.85;100028.31;115391;1198;101510;-86
2021/04/10 10:59:55;;;;;;;22.07;15.43;;;;;;;19.06;24.28;100035.30;115363;1199;102974;-85
2021/04/10 11:02:22;;;;;;;20.43;14.53;;;;;;;18.86;24.41;100044.63;115412;1200;102996;-86
2021/04/10 11:04:51;;;;;;;21.63;14.77;;;;;;;18.67;25.03;100045.06;115597;1200;101447;-84
2021/04/10 11:07:27;;;;;;;21.27;14.30;;;;;;;18.75;25.18;100038.39;115368;1199;103118;-84
2021/04/10 11:09:56;;;;;;;18.20;13.27;;;;;;;18.67;24.46;100034.49;115511;1199;102993;-84
2021/04/10 11:12:23;;;;;;;20.90;13.40;;;;;;;18.33;24.62;100043.84;115603;1199;102999;-84
2021/04/10 11:14:57;;;;;;;23.07;14.47;;;;;;;18.07;24.41;100055.27;115372;1198;103031;-86
2021/04/10 11:17:30;;;;;;;19.17;14.30;;;;;;;17.86;24.93;100035.58;115386;1199;103075;-84
2021/04/10 11:20:02;;;;;;;22.40;15.47;;;;;;;17.61;24.96;100039.79;115349;1199;103008;-83